Time;durP1;ratioP1;P1;durP2;ratioP2;P2;SDS_P1;SDS_P2;PMS_P1;PMS_P2;Temp;Humidity;BMP_temperature;BMP_pressure;BME280_temperature;BME280_humidity;BME280_pressure;Samples;Min_cycle;Max_cycle;Signal;HPM_P1;HPM_P2
2022/06/12 00:01:01;;;;;;;4.70;3.80;;;;;;;23.73;52.56;94804.78;6160148;28;103178;-50
2022/06/12 00:04:05;;;;;;;4.00;3.70;;;;;;;23.71;52.58;94811.56;6160121;28;102942;-51
2022/06/12 00:07:08;;;;;;;3.97;3.50;;;;;;;23.70;52.35;94802.75;6150319;28;103427;-49
2022/06/12 00:10:12;;;;;;;3.83;3.63;;;;;;;23.73;52.63;94804.00;6159828;28;103325;-50
2022/06/12 00:13:19;;;;;;;4.00;3.70;;;;;;;23.71;52.68;94798.97;6161284;28;103213;-50
2022/06/12 00:16:23;;;;;;;3.63;3.33;;;;;;;23.71;52.31;94801.66;6160104;28;103011;-50
2022/06/12 00:19:28;;;;;;;3.90;3.60;;;;;;;23.69;52.31;94793.19;6149171;28;105134;-50
2022/06/12 00:22:31;;;;;;;3.67;3.40;;;;;;;23.70;52.03;94786.72;6161159;28;103422;-50
2022/06/12 00:25:34;;;;;;;3.67;3.47;;;;;;;23.70;52.15;94791.28;6159574;28;103255;-50
2022/06/12 00:28:38;;;;;;;4.17;3.80;;;;;;;23.68;52.40;94788.13;6161057;28;103109;-50
2022/06/12 00:31:46;;;;;;;3.83;3.53;;;;;;;23.67;52.15;94783.91;6146512;28;104575;-50
2022/06/12 00:34:51;;;;;;;4.03;3.73;;;;;;;23.65;52.28;94780.75;6161189;28;104029;-50
2022/06/12 00:37:54;;;;;;;4.03;3.73;;;;;;;23.67;52.32;94787.34;6159111;28;104109;-50
2022/06/12 00:40:57;;;;;;;4.47;4.17;;;;;;;23.64;52.50;94779.97;6152821;28;103282;-50
2022/06/12 00:44:01;;;;;;;4.57;4.20;;;;;;;23.65;52.43;94788.78;6159300;28;102944;-50
2022/06/12 00:47:14;;;;;;;4.57;4.17;;;;;;;23.64;52.17;94788.00;6159665;28;103044;-50
2022/06/12 00:50:17;;;;;;;4.10;3.80;;;;;;;23.64;52.28;94779.19;6160329;28;102792;-51
2022/06/12 00:53:24;;;;;;;4.47;4.07;;;;;;;23.63;52.36;94785.66;6148373;28;103977;-50
2022/06/12 00:56:32;;;;;;;4.37;4.07;;;;;;;23.64;52.61;94781.88;6159697;28;103237;-50
2022/06/12 00:59:43;;;;;;;4.73;4.27;;;;;;;23.64;52.08;94785.31;6159444;28;103344;-50
2022/06/12 01:02:48;;;;;;;5.20;4.70;;;;;;;23.62;52.48;94774.19;6159305;28;103211;-50
2022/06/12 01:09:14;;;;;;;4.60;4.30;;;;;;;23.63;52.39;94773.06;6158331;28;103086;-50
2022/06/12 01:12:19;;;;;;;4.60;4.20;;;;;;;23.66;52.31;94785.00;6160515;28;104150;-50
2022/06/12 01:15:27;;;;;;;4.53;4.23;;;;;;;23.66;52.59;94774.31;6144450;28;103150;-51
2022/06/12 01:18:36;;;;;;;4.80;4.40;;;;;;;23.64;51.91;94771.19;6163758;28;103047;-50
2022/06/12 01:22:08;;;;;;;4.70;4.40;;;;;;;23.65;52.45;94765.50;6164417;28;103549;-50
2022/06/12 01:25:34;;;;;;;4.33;4.03;;;;;;;23.62;52.58;94774.19;6139777;28;103610;-50
2022/06/12 01:28:45;;;;;;;4.07;3.77;;;;;;;23.60;52.41;94760.38;6129198;28;104025;-50
2022/06/12 01:31:55;;;;;;;4.73;4.43;;;;;;;23.59;52.50;94764.16;6141025;28;104339;-50
2022/06/12 01:35:18;;;;;;;5.17;4.77;;;;;;;23.57;52.56;94756.44;6162080;28;103278;-50
2022/06/12 01:38:30;;;;;;;4.73;4.43;;;;;;;23.58;52.43;94762.56;6152786;28;104177;-50
2022/06/12 01:41:39;;;;;;;4.70;4.40;;;;;;;23.59;52.26;94764.16;6162825;28;104269;-49
2022/06/12 01:44:49;;;;;;;4.97;4.50;;;;;;;23.60;52.53;94755.81;6163345;28;103372;-50
2022/06/12 01:47:59;;;;;;;4.20;3.90;;;;;;;23.62;52.74;94766.16;6162295;28;102993;-50
2022/06/12 01:51:10;;;;;;;4.43;4.00;;;;;;;23.64;52.23;94769.28;6152426;28;103178;-50
2022/06/12 01:54:21;;;;;;;5.00;4.60;;;;;;;23.63;52.33;94770.41;6161701;28;104197;-50
2022/06/12 01:57:32;;;;;;;5.00;4.60;;;;;;;23.65;52.34;94770.06;6148684;28;103073;-49
2022/06/12 02:00:38;;;;;;;4.43;4.13;;;;;;;23.63;52.29;94765.06;6131024;28;103396;-50
2022/06/12 02:03:46;;;;;;;4.33;3.77;;;;;;;23.66;52.48;94763.63;6142004;28;104032;-50
2022/06/12 02:06:58;;;;;;;4.40;4.10;;;;;;;23.65;52.56;94760.19;6161988;28;103226;-49
2022/06/12 02:10:08;;;;;;;4.43;4.13;;;;;;;23.64;52.27;94765.84;6163034;28;104021;-49
2022/06/12 02:13:15;;;;;;;4.33;4.03;;;;;;;23.59;52.46;94756.91;6152251;28;103948;-50
2022/06/12 02:16:25;;;;;;;4.80;4.40;;;;;;;23.54;52.26;94762.44;6150385;28;103655;-50
2022/06/12 02:19:34;;;;;;;4.30;4.10;;;;;;;23.54;52.54;94757.09;6147012;28;103968;-50
2022/06/12 02:22:43;;;;;;;4.50;4.10;;;;;;;23.54;52.09;94757.09;6141317;28;103098;-50
2022/06/12 02:25:52;;;;;;;4.40;4.10;;;;;;;23.53;52.01;94760.88;6156444;28;103093;-49
2022/06/12 02:28:59;;;;;;;4.67;4.37;;;;;;;23.51;52.31;94759.59;6161833;28;104013;-50
2022/06/12 02:32:08;;;;;;;4.60;4.30;;;;;;;23.55;51.94;94757.88;6143428;28;103073;-50
2022/06/12 02:35:18;;;;;;;4.47;4.17;;;;;;;23.52;51.68;94755.84;6127760;28;103893;-50
2022/06/12 02:38:30;;;;;;;4.70;4.30;;;;;;;23.51;51.89;94763.06;6136473;28;103213;-50
2022/06/12 02:41:39;;;;;;;4.63;4.33;;;;;;;23.51;51.98;94763.06;6156438;28;104279;-50
2022/06/12 02:44:47;;;;;;;5.17;4.50;;;;;;;23.49;51.87;94753.81;6160445;28;103254;-50
2022/06/12 02:47:53;;;;;;;5.00;4.70;;;;;;;23.50;51.81;94760.72;6152887;28;104251;-52
2022/06/12 02:51:06;;;;;;;4.70;4.30;;;;;;;23.51;51.92;94767.63;6162156;28;104093;-49
2022/06/12 02:54:17;;;;;;;4.40;4.10;;;;;;;23.52;52.16;94770.00;6160529;28;103708;-49
2022/06/12 02:57:31;;;;;;;5.40;5.00;;;;;;;23.51;51.97;94768.41;6151770;28;104237;-50
2022/06/12 03:00:38;;;;;;;4.37;4.07;;;;;;;23.51;51.94;94762.28;6150714;28;104166;-49
2022/06/12 03:03:51;;;;;;;4.47;4.17;;;;;;;23.48;52.07;94771.72;6155235;28;103221;-49
2022/06/12 03:06:54;;;;;;;4.70;4.20;;;;;;;23.48;52.25;94769.06;6160412;28;103209;-49
2022/06/12 03:10:00;;;;;;;4.77;4.43;;;;;;;23.48;51.94;94773.63;6151102;28;104373;-49
2022/06/12 03:13:05;;;;;;;4.73;4.43;;;;;;;23.47;51.96;94767.50;6161440;28;103166;-50
2022/06/12 03:16:14;;;;;;;4.40;4.00;;;;;;;23.42;52.10;94766.88;6160329;28;103145;-49
2022/06/12 03:19:23;;;;;;;5.13;4.83;;;;;;;23.43;52.07;94766.56;6158259;28;103975;-50
2022/06/12 03:22:37;;;;;;;4.50;4.20;;;;;;;23.43;51.56;94765.78;6139303;28;104218;-49
2022/06/12 03:25:51;;;;;;;4.67;4.37;;;;;;;23.42;51.81;94767.66;6161124;28;103219;-50
2022/06/12 03:29:04;;;;;;;4.33;4.00;;;;;;;23.43;51.95;94768.47;6159717;28;103092;-50
2022/06/12 03:32:18;;;;;;;4.20;3.90;;;;;;;23.42;51.73;94769.56;6148925;28;102980;-50
2022/06/12 03:35:34;;;;;;;4.20;3.90;;;;;;;23.42;51.97;94767.66;6161123;28;103036;-51
2022/06/12 03:38:47;;;;;;;4.60;4.20;;;;;;;23.43;51.56;94766.56;6159223;28;104353;-50
2022/06/12 03:41:55;;;;;;;4.60;4.30;;;;;;;23.43;51.87;94769.25;6159607;28;104200;-50
2022/06/12 03:45:03;;;;;;;4.67;4.37;;;;;;;23.42;51.99;94765.00;6134366;28;104171;-50
2022/06/12 03:48:18;;;;;;;5.00;4.60;;;;;;;23.45;51.84;94760.91;6161422;28;103911;-50
2022/06/12 03:51:28;;;;;;;5.20;4.60;;;;;;;23.43;51.89;94765.78;6158413;28;103218;-50
2022/06/12 03:54:39;;;;;;;4.43;4.13;;;;;;;23.44;51.49;94764.69;6142592;28;104112;-50
2022/06/12 03:57:52;;;;;;;4.73;4.43;;;;;;;23.45;51.52;94761.69;6159943;28;103147;-50
2022/06/12 04:00:56;;;;;;;4.80;4.40;;;;;;;23.45;51.70;94764.34;6152258;28;103080;-50
2022/06/12 04:04:02;;;;;;;4.90;4.50;;;;;;;23.43;51.64;94763.91;6135421;28;103388;-50
2022/06/12 04:07:10;;;;;;;4.83;4.53;;;;;;;23.44;51.67;94770.03;6141395;28;103188;-50
2022/06/12 04:10:18;;;;;;;5.23;4.90;;;;;;;23.45;51.65;94771.59;6145110;28;103078;-50
2022/06/12 04:13:22;;;;;;;5.17;4.77;;;;;;;23.44;51.82;94776.16;6141562;28;102945;-50
2022/06/12 04:16:31;;;;;;;4.87;4.40;;;;;;;23.43;51.65;94782.59;6154820;28;104060;-50
2022/06/12 04:19:58;;;;;;;5.00;4.70;;;;;;;23.45;51.91;94776.94;6145845;28;104061;-49
2022/06/12 04:23:05;;;;;;;4.63;4.33;;;;;;;23.50;51.44;94777.53;6159423;28;104327;-52
2022/06/12 04:26:17;;;;;;;5.93;5.43;;;;;;;23.60;51.37;94781.72;6160888;28;104197;-53
2022/06/12 04:29:24;;;;;;;6.27;5.67;;;;;;;23.63;52.04;94794.44;6148734;28;103261;-49
2022/06/12 04:32:30;;;;;;;5.70;5.30;;;;;;;23.64;51.97;94784.53;6136570;28;103987;-48
2022/06/12 04:35:41;;;;;;;6.60;6.10;;;;;;;23.58;52.35;94789.28;6136654;28;103210;-54
2022/06/12 04:38:46;;;;;;;6.03;5.63;;;;;;;23.49;52.33;94788.53;6136840;28;104297;-55
2022/06/12 04:41:49;;;;;;;6.30;5.80;;;;;;;23.48;52.54;94793.09;6153653;28;103272;-54
2022/06/12 04:44:53;;;;;;;7.10;6.60;;;;;;;23.41;52.37;94790.16;6144863;28;103241;-54
2022/06/12 04:47:56;;;;;;;7.23;6.63;;;;;;;23.43;52.45;94795.16;6136425;28;103199;-50
2022/06/12 04:50:59;;;;;;;5.97;5.57;;;;;;;23.51;52.05;94792.44;6144392;28;103300;-48
2022/06/12 04:54:05;;;;;;;6.40;6.00;;;;;;;23.55;52.34;94792.59;6153546;28;104332;-48
2022/06/12 04:57:09;;;;;;;6.13;5.73;;;;;;;23.58;52.32;94798.09;6153557;28;104235;-49
2022/06/12 05:00:13;;;;;;;6.40;6.00;;;;;;;23.60;52.17;94800.44;6145953;28;104466;-48
2022/06/12 05:03:17;;;;;;;6.40;5.80;;;;;;;23.64;52.20;94797.91;6147356;28;103310;-49
2022/06/12 05:06:20;;;;;;;5.77;5.37;;;;;;;23.61;52.38;94807.34;6147390;28;103100;-57
2022/06/12 05:09:28;;;;;;;6.90;6.30;;;;;;;23.63;52.20;94813.16;6155215;28;103442;-55
2022/06/12 05:12:31;;;;;;;8.37;7.87;;;;;;;23.61;51.83;94804.66;6163094;28;104285;-56
2022/06/12 05:15:35;;;;;;;7.23;6.73;;;;;;;23.58;51.85;94800.75;6153754;28;104464;-48
2022/06/12 05:18:39;;;;;;;8.07;6.63;;;;;;;23.60;52.10;94797.75;6162783;28;103006;-50
2022/06/12 05:21:43;;;;;;;6.50;6.10;;;;;;;23.63;51.97;94801.69;6163748;28;104494;-48
2022/06/12 05:24:47;;;;;;;8.13;7.00;;;;;;;23.64;51.73;94809.38;6157619;28;104212;-48
2022/06/12 05:27:54;;;;;;;7.47;6.87;;;;;;;23.64;51.68;94805.91;6161088;28;102994;-48
2022/06/12 05:30:57;;;;;;;7.33;6.63;;;;;;;23.61;52.12;94807.34;6163432;28;103481;-48
2022/06/12 05:34:00;;;;;;;7.10;6.40;;;;;;;23.60;51.78;94814.56;6164049;28;103951;-49
2022/06/12 05:37:04;;;;;;;6.93;5.97;;;;;;;23.62;51.83;94806.25;6154045;28;103677;-48
2022/06/12 05:40:14;;;;;;;7.33;6.70;;;;;;;23.59;51.95;94815.69;6164320;28;103987;-49
2022/06/12 05:43:21;;;;;;;7.80;7.07;;;;;;;23.62;52.01;94821.47;6162985;28;103060;-48
2022/06/12 05:46:25;;;;;;;7.03;6.47;;;;;;;23.62;52.47;94827.59;6162890;28;103051;-48
2022/06/12 05:49:29;;;;;;;7.20;6.70;;;;;;;23.64;52.21;94825.41;6152270;28;104001;-48
2022/06/12 05:52:32;;;;;;;8.33;7.53;;;;;;;23.58;52.42;94837.38;6163656;28;104216;-55
2022/06/12 05:55:37;;;;;;;10.03;7.30;;;;;;;23.60;52.34;94843.19;6162562;28;103172;-54
2022/06/12 05:58:40;;;;;;;16.33;7.70;;;;;;;23.66;53.05;94838.44;6157536;28;103181;-49
2022/06/12 06:01:44;;;;;;;9.50;7.00;;;;;;;23.60;52.74;94837.84;6157373;28;103452;-48
2022/06/12 06:04:47;;;;;;;11.67;7.50;;;;;;;23.59;52.57;94844.28;6162289;28;103129;-48
2022/06/12 06:07:50;;;;;;;8.33;7.10;;;;;;;23.58;53.28;94842.72;6163788;28;104230;-48
2022/06/12 06:10:55;;;;;;;11.10;7.00;;;;;;;23.58;52.95;94848.06;6153062;28;103261;-48
2022/06/12 06:13:58;;;;;;;7.57;6.70;;;;;;;23.61;52.98;94850.09;6162857;28;104291;-55
2022/06/12 06:17:01;;;;;;;8.23;7.57;;;;;;;23.61;53.34;94847.41;6162006;28;103661;-54
2022/06/12 06:20:05;;;;;;;6.90;6.30;;;;;;;23.62;53.34;94854.31;6162327;28;103274;-54
2022/06/12 06:23:09;;;;;;;8.70;7.90;;;;;;;23.65;54.96;94853.69;6152392;28;105121;-54
2022/06/12 06:26:14;;;;;;;11.10;10.23;;;;;;;23.65;53.96;94861.69;6162280;28;104835;-54
2022/06/12 06:29:17;;;;;;;10.10;9.33;;;;;;;23.64;53.57;94868.13;6162819;28;104057;-53
2022/06/12 06:32:21;;;;;;;15.00;14.10;;;;;;;23.59;55.41;94871.00;6158882;28;102937;-49
2022/06/12 06:35:25;;;;;;;11.90;11.00;;;;;;;23.65;54.64;94872.38;6155991;28;103325;-48
2022/06/12 06:38:28;;;;;;;11.90;11.10;;;;;;;23.64;54.82;94870.81;6162954;28;103030;-48
2022/06/12 06:41:33;;;;;;;10.10;9.30;;;;;;;23.59;54.54;94877.13;6162440;28;104201;-47
2022/06/12 06:47:56;;;;;;;10.10;9.30;;;;;;;23.64;54.24;94888.72;6161031;28;103185;-47
2022/06/12 06:51:00;;;;;;;9.70;9.00;;;;;;;23.59;54.67;94887.03;6162370;28;104216;-48
2022/06/12 06:54:04;;;;;;;8.80;8.20;;;;;;;23.58;54.49;94890.78;6155564;28;103058;-48
2022/06/12 06:57:09;;;;;;;9.90;9.10;;;;;;;23.55;54.74;94886.09;6126683;28;103300;-49
2022/06/12 07:00:17;;;;;;;10.03;9.20;;;;;;;23.53;55.32;94881.06;6137852;28;103100;-49
2022/06/12 07:03:20;;;;;;;8.57;7.97;;;;;;;23.50;55.64;94892.38;6137373;28;103352;-50
2022/06/12 07:06:24;;;;;;;9.43;8.47;;;;;;;23.55;54.90;94883.44;6134775;28;104588;-55
2022/06/12 07:09:28;;;;;;;8.80;8.20;;;;;;;23.58;54.61;94891.56;6132304;28;103093;-55
2022/06/12 07:12:32;;;;;;;8.63;8.03;;;;;;;23.63;54.32;94893.28;6137863;28;104323;-54
2022/06/12 07:15:36;;;;;;;9.90;9.00;;;;;;;23.66;54.45;94892.66;6138040;28;104469;-54
2022/06/12 07:18:40;;;;;;;9.47;8.77;;;;;;;23.67;54.71;94888.09;6126661;28;103016;-55
2022/06/12 07:21:43;;;;;;;8.70;8.00;;;;;;;23.70;54.45;94898.16;6137805;28;103202;-54
2022/06/12 07:24:46;;;;;;;8.47;7.77;;;;;;;23.70;54.27;94892.81;6137588;28;103305;-53
2022/06/12 07:27:51;;;;;;;8.23;7.63;;;;;;;23.71;54.30;94889.03;6137273;28;103291;-54
2022/06/12 07:31:01;;;;;;;8.30;7.70;;;;;;;23.70;54.28;94898.94;6127434;28;104296;-54
2022/06/12 07:34:05;;;;;;;8.03;7.40;;;;;;;23.69;54.16;94902.72;6137289;28;104274;-54
2022/06/12 07:37:09;;;;;;;8.13;7.53;;;;;;;23.70;54.46;94903.50;6137713;28;103720;-55
2022/06/12 07:40:22;;;;;;;8.23;7.63;;;;;;;23.72;53.98;94902.06;6160565;28;103284;-54
2022/06/12 07:43:28;;;;;;;8.40;7.80;;;;;;;23.71;54.51;94905.84;6152533;28;103160;-54
2022/06/12 07:46:31;;;;;;;7.47;6.77;;;;;;;23.73;54.16;94913.53;6161242;28;103313;-55
2022/06/12 07:49:36;;;;;;;8.90;8.10;;;;;;;23.75;54.82;94914.78;6159540;28;102873;-54
2022/06/12 07:52:41;;;;;;;9.60;8.70;;;;;;;23.74;54.23;94915.13;6140891;28;102963;-54
2022/06/12 07:55:45;;;;;;;8.20;7.40;;;;;;;23.76;53.96;94915.56;6160600;28;104332;-55
2022/06/12 07:58:49;;;;;;;9.80;8.30;;;;;;;23.72;54.50;94917.31;6156172;28;103012;-53
2022/06/12 08:01:53;;;;;;;9.87;7.97;;;;;;;23.73;54.34;94918.88;6160902;28;103090;-52
2022/06/12 08:04:56;;;;;;;8.00;7.20;;;;;;;23.75;54.86;94914.00;6149425;28;103647;-53
2022/06/12 08:08:00;;;;;;;8.37;7.57;;;;;;;23.75;54.26;94914.00;6161368;28;104160;-53
2022/06/12 08:11:03;;;;;;;8.60;8.00;;;;;;;23.74;54.46;94918.56;6160587;28;103132;-54
2022/06/12 08:14:08;;;;;;;8.40;7.60;;;;;;;23.74;54.37;94915.91;6161126;28;103278;-53
2022/06/12 08:17:13;;;;;;;8.07;7.47;;;;;;;23.75;54.30;94917.47;6149711;28;104477;-54
2022/06/12 08:20:28;;;;;;;8.53;7.93;;;;;;;23.76;54.71;94926.25;6159793;28;103106;-54
2022/06/12 08:23:37;;;;;;;8.13;7.53;;;;;;;23.76;53.98;94919.03;6160710;28;103066;-54
2022/06/12 08:26:40;;;;;;;8.60;7.83;;;;;;;23.75;54.40;94925.47;6152573;28;102839;-54
2022/06/12 08:29:45;;;;;;;8.70;8.10;;;;;;;23.74;54.91;94925.81;6163564;28;103404;-54
2022/06/12 08:32:52;;;;;;;8.97;8.07;;;;;;;23.72;55.19;94926.13;6159846;28;102833;-54
2022/06/12 08:35:56;;;;;;;8.27;7.67;;;;;;;23.74;55.17;94931.94;6141435;28;103990;-53
2022/06/12 08:38:59;;;;;;;8.60;7.90;;;;;;;23.74;55.31;94923.91;6145521;28;104436;-54
2022/06/12 08:42:09;;;;;;;7.37;6.87;;;;;;;23.74;55.00;94918.56;6163964;28;104367;-54
2022/06/12 08:45:18;;;;;;;8.40;7.90;;;;;;;23.76;55.09;94921.69;6160245;28;103026;-54
2022/06/12 08:48:31;;;;;;;7.57;6.97;;;;;;;23.80;56.13;94927.97;6149367;28;104248;-54
2022/06/12 08:51:39;;;;;;;7.50;7.00;;;;;;;23.83;55.10;94927.31;6150780;28;103079;-53
2022/06/12 08:54:47;;;;;;;8.17;7.47;;;;;;;23.80;55.58;94919.94;6159255;28;104304;-54
2022/06/12 08:57:56;;;;;;;8.80;8.00;;;;;;;23.82;56.57;94930.31;6160105;28;103977;-54
2022/06/12 09:01:01;;;;;;;7.83;7.17;;;;;;;23.80;55.86;94927.97;6154088;28;104098;-54
2022/06/12 09:04:04;;;;;;;7.60;7.00;;;;;;;23.83;55.02;94919.31;6163380;28;103288;-52
2022/06/12 09:07:13;;;;;;;8.53;7.30;;;;;;;23.86;55.32;94928.59;6151800;28;103144;-53
2022/06/12 09:10:25;;;;;;;8.10;7.20;;;;;;;23.88;56.38;94935.19;6158748;28;103102;-53
2022/06/12 09:13:30;;;;;;;8.70;7.50;;;;;;;23.88;56.50;94927.16;6146954;28;104175;-54
2022/06/12 09:16:47;;;;;;;13.53;7.80;;;;;;;23.88;56.38;94935.19;6145619;28;103874;-54
2022/06/12 09:19:57;;;;;;;7.30;6.60;;;;;;;23.86;56.62;94933.94;6161280;28;103221;-49
2022/06/12 09:23:07;;;;;;;8.30;7.50;;;;;;;23.82;56.08;94935.66;6156895;28;104113;-49
2022/06/12 09:26:25;;;;;;;10.00;7.80;;;;;;;23.80;56.22;94935.19;6146518;28;104726;-49
2022/06/12 09:29:40;;;;;;;7.37;6.77;;;;;;;23.76;56.51;94940.41;6162877;28;103980;-49
2022/06/12 09:32:55;;;;;;;8.00;7.40;;;;;;;23.77;56.37;94939.31;6160636;28;103428;-48
2022/06/12 09:36:19;;;;;;;7.87;7.27;;;;;;;23.79;56.86;94942.44;6145889;28;103814;-48
2022/06/12 09:39:36;;;;;;;8.03;7.43;;;;;;;23.80;56.58;94935.97;6147878;28;103139;-48
2022/06/12 09:42:57;;;;;;;7.17;6.57;;;;;;;23.82;56.67;94939.13;6156310;28;103798;-49
2022/06/12 09:46:03;;;;;;;7.30;6.80;;;;;;;23.82;56.28;94941.00;6141375;28;103235;-49
2022/06/12 09:49:22;;;;;;;8.13;7.43;;;;;;;23.82;55.99;94939.13;6152920;28;102937;-49
2022/06/12 09:52:50;;;;;;;8.00;7.20;;;;;;;23.82;57.81;94936.44;6158713;28;103923;-48
2022/06/12 09:55:56;;;;;;;8.47;7.87;;;;;;;23.77;57.39;94936.63;6151699;28;103181;-49
2022/06/12 09:59:06;;;;;;;7.60;7.10;;;;;;;23.78;57.25;94932.84;6148619;28;104312;-50
2022/06/12 10:02:16;;;;;;;8.20;7.40;;;;;;;23.76;57.39;94934.28;6148184;28;104448;-49
2022/06/12 10:05:28;;;;;;;9.03;8.30;;;;;;;23.84;57.34;94939.59;6140436;28;104091;-55
2022/06/12 10:08:35;;;;;;;7.73;7.03;;;;;;;23.88;57.65;94937.88;6143447;28;104073;-55
2022/06/12 10:11:43;;;;;;;7.70;7.10;;;;;;;23.91;57.75;94931.09;6153459;28;103314;-54
2022/06/12 10:14:50;;;;;;;8.20;7.50;;;;;;;23.94;57.67;94927.00;6161113;28;102932;-54
2022/06/12 10:17:59;;;;;;;8.20;7.47;;;;;;;23.96;57.79;94932.78;6152729;28;103091;-55
2022/06/12 10:21:09;;;;;;;9.63;7.50;;;;;;;23.98;57.78;94935.94;6151086;28;104347;-54
2022/06/12 10:24:13;;;;;;;8.33;7.60;;;;;;;23.97;57.97;94929.03;6161196;28;103139;-55
2022/06/12 10:27:19;;;;;;;7.53;6.93;;;;;;;23.98;57.99;94922.56;6148352;28;103080;-56
2022/06/12 10:30:32;;;;;;;7.70;7.10;;;;;;;23.98;57.96;94925.25;6160349;28;104691;-55
2022/06/12 10:33:47;;;;;;;7.90;7.30;;;;;;;23.98;57.65;94918.00;6138771;28;104378;-55
2022/06/12 10:36:52;;;;;;;8.07;7.40;;;;;;;23.98;57.87;94917.22;6142385;28;103377;-54
2022/06/12 10:40:02;;;;;;;7.40;6.83;;;;;;;23.99;57.76;94921.47;6157638;28;103275;-55
2022/06/12 10:43:08;;;;;;;7.27;6.67;;;;;;;23.99;57.19;94921.47;6150416;28;103156;-49
2022/06/12 10:46:19;;;;;;;8.20;7.50;;;;;;;24.00;57.43;94925.72;6139970;28;103729;-49
2022/06/12 10:49:24;;;;;;;7.60;7.10;;;;;;;23.99;57.34;94921.47;6154120;28;103319;-48
2022/06/12 10:52:29;;;;;;;8.07;7.47;;;;;;;24.01;57.43;94924.63;6155754;28;103306;-48
2022/06/12 10:55:43;;;;;;;8.50;7.80;;;;;;;24.03;57.86;94928.56;6147920;28;104150;-49
2022/06/12 10:59:03;;;;;;;7.33;6.83;;;;;;;24.01;57.58;94924.63;6157653;28;103002;-48
2022/06/12 11:02:35;;;;;;;8.03;7.47;;;;;;;24.01;57.34;94919.28;6157151;28;104034;-48
2022/06/12 11:05:54;;;;;;;7.57;7.07;;;;;;;24.01;56.81;94919.28;6128274;28;103069;-49
2022/06/12 11:09:14;;;;;;;6.80;6.33;;;;;;;24.02;57.56;94921.63;6157250;28;103279;-49
2022/06/12 11:12:34;;;;;;;7.53;6.83;;;;;;;24.02;57.46;94918.16;6162427;28;104516;-49
2022/06/12 11:15:55;;;;;;;7.53;6.83;;;;;;;24.06;57.12;94913.78;6160049;28;103201;-49
2022/06/12 11:19:16;;;;;;;6.83;6.23;;;;;;;24.05;57.34;94910.31;6151582;28;104112;-48
2022/06/12 11:22:34;;;;;;;7.70;7.10;;;;;;;24.07;57.32;94912.66;6162037;28;104103;-49
2022/06/12 11:25:54;;;;;;;7.33;6.83;;;;;;;24.09;57.39;94915.78;6147624;28;103035;-49
2022/06/12 11:29:11;;;;;;;8.03;7.23;;;;;;;24.10;57.42;94917.38;6140083;28;103538;-49
2022/06/12 11:32:21;;;;;;;7.50;6.80;;;;;;;24.11;57.60;94921.59;6135865;28;103023;-49
2022/06/12 11:35:38;;;;;;;8.10;7.40;;;;;;;24.10;57.48;94912.81;6137367;28;103092;-49
2022/06/12 11:38:52;;;;;;;7.90;7.30;;;;;;;24.12;57.28;94915.16;6137047;28;103175;-49
2022/06/12 11:42:10;;;;;;;7.87;7.27;;;;;;;24.12;57.20;94917.81;6150184;28;103106;-49
2022/06/12 11:45:27;;;;;;;8.23;7.63;;;;;;;24.13;57.20;94906.03;6150434;28;104536;-48
2022/06/12 11:48:50;;;;;;;9.07;8.37;;;;;;;24.13;57.14;94909.47;6153298;28;104058;-49
2022/06/12 11:52:04;;;;;;;9.80;8.90;;;;;;;24.13;57.41;94903.34;6126472;28;104279;-48
2022/06/12 11:55:23;;;;;;;9.03;8.43;;;;;;;24.16;57.09;94905.38;6145122;28;103184;-48
2022/06/12 11:58:47;;;;;;;12.07;10.87;;;;;;;24.15;56.80;94895.78;6153184;28;103234;-48
2022/06/12 12:02:02;;;;;;;10.60;9.70;;;;;;;24.14;57.12;94897.69;6150654;28;102883;-48
2022/06/12 12:05:27;;;;;;;11.30;10.40;;;;;;;24.16;57.12;94892.00;6141720;28;103360;-48
2022/06/12 12:08:48;;;;;;;10.80;9.90;;;;;;;24.17;57.10;94893.56;6157468;28;103231;-48
2022/06/12 12:11:56;;;;;;;11.53;10.63;;;;;;;24.17;57.28;94899.69;6155427;28;103048;-48
2022/06/12 12:15:05;;;;;;;11.43;10.43;;;;;;;24.17;57.18;94890.91;6137909;28;104060;-48
2022/06/12 12:18:16;;;;;;;11.33;10.43;;;;;;;24.18;57.06;94892.47;6152823;28;103009;-49
2022/06/12 12:21:28;;;;;;;11.40;10.53;;;;;;;24.17;56.87;94891.69;6157453;28;103489;-49
2022/06/12 12:24:39;;;;;;;13.07;12.00;;;;;;;24.16;56.91;94884.75;6144005;28;103065;-49
2022/06/12 12:27:46;;;;;;;10.47;9.73;;;;;;;24.17;56.74;94882.88;6153901;28;104063;-49
2022/06/12 12:30:55;;;;;;;10.80;10.00;;;;;;;24.19;56.75;94883.34;6156011;28;103116;-48
2022/06/12 12:34:02;;;;;;;10.93;10.03;;;;;;;24.17;56.39;94874.84;6158587;28;103149;-49
2022/06/12 12:43:55;;;;;;;10.40;9.50;;;;;;;24.19;56.00;94872.63;6147587;28;103045;-49
2022/06/12 12:47:01;;;;;;;9.30;8.70;;;;;;;24.18;56.01;94871.84;6145279;28;103641;-49
2022/06/12 12:50:08;;;;;;;9.80;9.00;;;;;;;24.19;55.64;94864.63;6138964;28;104753;-49
2022/06/12 12:53:21;;;;;;;8.70;8.10;;;;;;;24.16;55.47;94862.59;6158391;28;102973;-54
2022/06/12 12:56:33;;;;;;;9.00;8.30;;;;;;;24.17;55.56;94867.63;6157354;28;102917;-54
2022/06/12 12:59:38;;;;;;;8.83;8.20;;;;;;;24.18;55.59;94865.72;6138574;28;103058;-54
2022/06/12 13:02:49;;;;;;;9.80;9.10;;;;;;;24.19;55.05;94856.59;6158436;28;104003;-54
2022/06/12 13:06:34;;;;;;;10.77;9.87;;;;;;;24.20;55.07;94866.22;6158270;28;104166;-54
2022/06/12 13:09:59;;;;;;;12.30;11.27;;;;;;;24.22;55.02;94872.00;6141023;28;103204;-54
2022/06/12 13:13:28;;;;;;;10.90;9.90;;;;;;;24.28;55.91;94857.34;6139425;28;104319;-53
2022/06/12 13:16:43;;;;;;;11.17;10.13;;;;;;;24.30;56.69;94851.66;6160600;28;103030;-56
2022/06/12 13:20:14;;;;;;;7.97;7.27;;;;;;;24.11;54.31;94846.75;6154859;28;104487;-55
2022/06/12 13:23:31;;;;;;;8.50;7.90;;;;;;;24.14;55.58;94849.56;6128549;28;103262;-54
2022/06/12 13:26:40;;;;;;;6.67;6.27;;;;;;;24.09;53.94;94848.97;6156318;28;103216;-54
2022/06/12 13:29:45;;;;;;;6.17;5.70;;;;;;;24.15;54.70;94839.63;6157700;28;104036;-56
2022/06/12 13:32:48;;;;;;;6.47;5.97;;;;;;;24.16;54.55;94836.63;6150275;28;102986;-54
2022/06/12 13:36:14;;;;;;;6.77;6.17;;;;;;;24.20;54.16;94847.50;6159245;28;102843;-54
2022/06/12 13:39:23;;;;;;;7.20;6.60;;;;;;;24.22;54.70;94847.16;6160920;28;102675;-55
2022/06/12 13:42:29;;;;;;;6.23;5.83;;;;;;;24.19;54.04;94843.22;6156614;28;103104;-55
2022/06/12 13:45:32;;;;;;;6.37;5.80;;;;;;;24.22;54.36;94847.16;6149545;28;103290;-53
2022/06/12 13:48:36;;;;;;;5.43;5.13;;;;;;;24.17;53.91;94848.91;6155357;28;104800;-55
2022/06/12 13:51:48;;;;;;;5.60;5.30;;;;;;;24.20;53.91;94842.16;6141034;28;103594;-54
2022/06/12 13:54:51;;;;;;;6.90;6.30;;;;;;;24.19;53.73;94846.72;6158278;28;103266;-53
2022/06/12 13:57:56;;;;;;;6.37;5.97;;;;;;;24.08;52.72;94848.19;6150850;28;103326;-55
2022/06/12 14:01:02;;;;;;;7.83;7.23;;;;;;;24.12;53.73;94849.09;6155917;28;104131;-54
2022/06/12 14:04:08;;;;;;;10.40;9.70;;;;;;;24.18;54.56;94844.34;6142991;28;103013;-54
2022/06/12 14:07:13;;;;;;;14.13;12.93;;;;;;;24.23;54.92;94857.53;6154574;28;103111;-54
2022/06/12 14:10:20;;;;;;;16.47;15.30;;;;;;;24.24;55.05;94856.44;6151400;28;103280;-54
2022/06/12 14:13:29;;;;;;;14.03;12.93;;;;;;;24.27;54.98;94847.75;6146119;28;104634;-54
2022/06/12 14:16:32;;;;;;;14.70;13.60;;;;;;;24.25;55.06;94828.59;6146770;28;103156;-54
2022/06/12 14:19:36;;;;;;;13.73;12.73;;;;;;;24.27;55.32;94821.00;6125476;28;103095;-56
2022/06/12 14:22:45;;;;;;;14.70;13.30;;;;;;;24.29;55.27;94823.34;6150234;28;104354;-55
2022/06/12 14:25:51;;;;;;;12.90;11.97;;;;;;;24.30;55.15;94835.63;6150546;28;103368;-54
2022/06/12 14:28:54;;;;;;;12.07;11.10;;;;;;;24.30;55.28;94831.06;6141677;28;103231;-54
2022/06/12 14:32:07;;;;;;;11.67;10.73;;;;;;;24.32;55.36;94844.88;6141826;28;104028;-54
2022/06/12 14:35:18;;;;;;;10.20;9.37;;;;;;;24.32;55.15;94860.94;6143230;28;103245;-53
2022/06/12 14:38:26;;;;;;;9.47;8.77;;;;;;;24.32;55.05;94854.78;6152616;28;103276;-54
2022/06/12 14:41:29;;;;;;;9.07;8.37;;;;;;;24.30;55.07;94855.13;6135630;28;103875;-54
2022/06/12 14:44:33;;;;;;;8.83;8.07;;;;;;;24.32;55.31;94857.47;6146867;28;103190;-55
2022/06/12 14:47:36;;;;;;;9.40;8.50;;;;;;;24.32;54.97;94860.94;6152829;28;103162;-55
2022/06/12 14:50:40;;;;;;;8.10;7.50;;;;;;;24.32;55.12;94879.66;6144027;28;103212;-55